Latest Weather Observations for Sydney - Observatory Hill

IDN60801

Issued at 1:02 pm EDT Thursday 24 October 2019 (issued every 10 minutes, with the page automatically refreshed every 10 minutes)

About weather observations | Map of weather stations | Latest weather observations for NSW | Other Formats
Station Details ID: 066062 Name: SYDNEY (OBSERVATORY HILL) Lat: -33.86 Lon: 151.21 Height: 39.0 m
Data from the previous 72 hours. | See also: Recent months at Sydney - Observatory Hill

* Apparent temperature (App Temp) for Sydney - Observatory Hill is calculated using temperature observations collected at Sydney - Observatory Hill and wind observations collected at Fort Denison, as wind observations are not currently provided for Sydney - Observatory Hill.

Date/Time
EDT
Temp
°C
App
Temp
°C
Dew
Point
°C
Rel
Hum
%
Delta-T
°C
Wind Press
QNH
hPa
Press
MSL
hPa
Rain since
9am
mm
Dir  Spd
km/h
Gust
km/h
Spd
kts
Gust
kts
24/01:00pm 25.0 22.6 13.9 50 6.5 E 19 - 10 - 1017.5 1017.5 0.0
24/12:30pm 25.3 23.7 15.9 56 5.7 ESE 19 - 10 - 1017.7 1017.7 0.0
24/12:00pm 24.9 23.1 15.5 56 5.7 E 19 - 10 - 1018.0 1018.0 0.0
24/11:30am 25.3 23.4 15.3 54 6.0 ESE 19 - 10 - 1018.4 1018.4 0.0
24/11:00am 24.4 22.5 15.3 57 5.5 E 19 - 10 - 1018.6 1018.6 0.0
24/10:30am 25.4 24.6 15.1 53 6.2 E 13 - 7 - 1018.8 1018.8 0.0
24/10:00am 23.6 24.8 14.9 58 5.2 ESE 2 - 1 - 1018.9 1018.9 0.0
24/09:30am 23.3 23.3 15.1 60 4.9 SSE 9 - 5 - 1019.0 1019.0 0.0
24/09:00am 22.2 21.5 15.5 66 4.0 S 13 - 7 - 1019.1 1019.1 0.0
24/08:30am 21.2 20.1 15.3 69 3.5 SSW 15 - 8 - 1019.1 1019.1 0.0
24/08:00am 20.3 20.3 15.1 72 3.1 SSW 9 - 5 - 1018.9 1018.9 0.0
24/07:30am 19.6 19.9 15.9 79 2.2 SSW 9 - 5 - 1018.6 1018.6 0.0
24/07:00am 18.8 18.9 15.5 81 1.9 SSW 9 - 5 - 1018.2 1018.2 0.0
24/06:30am 18.6 17.6 15.5 82 1.8 SSW 15 - 8 - 1018.0 1018.0 0.0
24/06:00am 18.6 17.3 15.7 83 1.7 SSW 17 - 9 - 1017.8 1017.8 0.0
24/05:30am 18.6 17.3 15.7 83 1.7 SW 17 - 9 - 1017.4 1017.4 0.0
24/05:00am 18.6 18.4 15.7 83 1.7 SSW 11 - 6 - 1017.1 1017.1 0.0
24/04:30am 18.6 18.1 15.8 84 1.7 SSW 13 - 7 - 1017.0 1017.0 0.0
24/04:00am 18.8 18.0 16.0 84 1.7 SSW 15 - 8 - 1017.0 1017.0 0.0
24/03:30am 18.8 17.9 15.9 83 1.7 SSW 15 - 8 - 1016.9 1016.9 0.0
24/03:00am 18.7 18.7 15.2 80 2.1 S 9 - 5 - 1017.1 1017.1 0.0
24/02:30am 18.8 19.2 15.3 80 2.1 S 7 - 4 - 1017.2 1017.2 0.0
24/02:00am 18.7 18.6 15.0 79 2.2 SSW 9 - 5 - 1017.3 1017.3 0.0
24/01:30am 18.8 19.3 15.1 79 2.2 SW 6 - 3 - 1017.6 1017.6 0.0
24/01:00am 18.8 19.6 14.7 77 2.4 S 4 - 2 - 1017.8 1017.8 0.0
24/12:30am 19.6 19.6 15.3 76 2.5 E 9 - 5 - 1017.6 1017.6 0.0
24/12:00am 19.6 19.8 14.6 73 2.9 ESE 7 - 4 - 1017.8 1017.8 0.0
 
Date/Time
EDT
Temp
°C
App
Temp
°C
Dew
Point
°C
Rel
Hum
%
Delta-T
°C
Wind Press
QNH
hPa
Press
MSL
hPa
Rain since
9am
mm
Dir  Spd
km/h
Gust
km/h
Spd
kts
Gust
kts
23/11:30pm 20.0 20.2 14.8 72 3.0 E 7 - 4 - 1018.0 1018.0 0.0
23/11:00pm 20.5 20.8 14.4 68 3.6 ESE 6 - 3 - 1018.0 1018.0 0.0
23/10:30pm 19.7 20.6 15.1 75 2.7 ENE 4 - 2 - 1018.3 1018.3 0.0
23/10:00pm 19.9 20.9 15.3 75 2.7 NE 4 - 2 - 1018.4 1018.4 0.0
23/09:30pm 20.2 19.4 15.2 73 3.0 E 13 - 7 - 1018.5 1018.5 0.0
23/09:00pm 20.4 20.1 15.4 73 3.0 ENE 11 - 6 - 1018.3 1018.3 0.0
23/08:30pm 20.3 20.3 15.3 73 3.0 E 9 - 5 - 1017.8 1017.8 0.0
23/08:00pm 20.3 20.3 15.3 73 3.0 ESE 9 - 5 - 1017.6 1017.6 0.0
23/07:30pm 20.3 20.4 15.5 74 2.9 ESE 9 - 5 - 1017.5 1017.5 0.0
23/07:00pm 20.6 19.8 15.2 71 3.2 ENE 13 - 7 - 1017.3 1017.3 0.0
23/06:30pm 21.3 20.8 14.9 67 3.8 ENE 11 - 6 - 1017.2 1017.2 0.0
23/06:00pm 21.9 19.7 14.8 64 4.2 NE 20 - 11 - 1017.3 1017.3 0.0
23/05:30pm 22.5 20.7 14.4 60 4.8 NE 17 - 9 - 1017.3 1017.3 0.0
23/05:00pm 22.7 20.3 14.3 59 4.9 NE 20 - 11 - 1017.1 1017.1 0.0
23/04:30pm 23.0 20.3 14.6 59 5.0 NE 22 - 12 - 1017.3 1017.3 0.0
23/04:00pm 23.0 19.9 14.6 59 5.0 NE 24 - 13 - 1017.8 1017.8 0.0
23/03:30pm 23.1 20.3 14.4 58 5.1 NE 22 - 12 - 1018.2 1018.2 0.0
23/03:00pm 22.8 19.7 14.4 59 4.9 ENE 24 - 13 - 1018.7 1018.7 0.0
23/02:30pm 22.6 18.8 13.7 57 5.2 ENE 26 - 14 - 1019.2 1019.2 0.0
23/02:00pm 23.2 19.1 13.7 55 5.5 ENE 28 - 15 - 1019.9 1019.8 0.0
23/01:30pm 23.6 18.9 14.3 56 5.5 ENE 32 - 17 - 1020.5 1020.4 0.0
23/01:00pm 23.3 19.5 13.5 54 5.7 ENE 26 - 14 - 1021.0 1020.9 0.0
23/12:30pm 23.8 20.9 13.9 54 5.8 NE 22 - 12 - 1021.4 1021.3 0.0
23/12:00pm 24.1 21.4 14.5 55 5.7 ENE 22 - 12 - 1022.0 1021.9 0.0
23/11:30am 23.4 20.4 13.8 54 5.6 NE 22 - 12 - 1022.6 1022.5 0.0
23/11:00am 23.2 20.7 14.2 57 5.3 ENE 20 - 11 - 1023.1 1023.0 0.0
23/10:30am 23.1 21.3 14.4 58 5.1 NE 17 - 9 - 1023.5 1023.4 0.0
23/10:00am 23.6 22.3 13.8 54 5.7 ENE 13 - 7 - 1023.7 1023.6 0.0
23/09:30am 20.7 18.3 12.7 60 4.5 NNE 17 - 9 - 1024.1 1024.0 0.0
23/09:00am 21.3 20.4 12.7 58 4.9 NNE 9 - 5 - 1024.2 1024.1 0.0
23/08:30am 19.8 19.5 14.4 71 3.1 N 9 - 5 - 1024.3 1024.2 0.0
23/08:00am 17.8 17.6 13.7 77 2.3 WNW 7 - 4 - 1024.3 1024.2 0.0
23/07:30am 16.7 16.1 13.4 81 1.9 WNW 9 - 5 - 1024.3 1024.2 0.0
23/07:00am 16.2 14.9 13.7 85 1.4 WNW 13 - 7 - 1024.1 1024.0 0.0
23/06:30am 15.8 15.1 13.1 84 1.5 WNW 9 - 5 - 1023.9 1023.8 0.0
23/06:00am 15.9 14.8 13.0 83 1.6 WNW 11 - 6 - 1023.8 1023.7 0.0
23/05:30am 16.1 15.4 13.2 83 1.6 WNW 9 - 5 - 1023.6 1023.5 0.0
23/05:00am 16.2 15.8 13.1 82 1.7 WNW 7 - 4 - 1023.5 1023.4 0.0
23/04:30am 16.4 15.7 13.1 81 1.8 W 9 - 5 - 1023.4 1023.3 0.0
23/04:00am 16.7 15.9 13.0 79 2.1 WNW 9 - 5 - 1023.6 1023.5 0.0
23/03:30am 17.7 18.5 13.6 77 2.3 NNW 2 - 1 - 1023.6 1023.5 0.0
23/03:00am 18.1 18.5 13.8 76 2.4 N 4 - 2 - 1023.6 1023.5 0.0
23/02:30am 18.1 18.5 13.8 76 2.5 NNE 4 - 2 - 1023.7 1023.6 0.0
23/02:00am 18.2 17.7 13.9 76 2.4 ENE 9 - 5 - 1023.9 1023.8 0.0
23/01:30am 18.4 17.2 13.9 75 2.6 ENE 13 - 7 - 1024.3 1024.2 0.0
23/01:00am 18.6 17.8 14.1 75 2.6 ENE 11 - 6 - 1024.8 1024.7 0.0
23/12:30am 18.5 17.7 14.0 75 2.6 ENE 11 - 6 - 1025.1 1025.0 0.0
23/12:00am 18.8 18.0 13.9 73 2.8 ENE 11 - 6 - 1025.3 1025.2 0.0
 
Date/Time
EDT
Temp
°C
App
Temp
°C
Dew
Point
°C
Rel
Hum
%
Delta-T
°C
Wind Press
QNH
hPa
Press
MSL
hPa
Rain since
9am
mm
Dir  Spd
km/h
Gust
km/h
Spd
kts
Gust
kts
22/11:30pm 18.9 18.1 14.0 73 2.8 ENE 11 - 6 - 1025.3 1025.2 0.0
22/11:00pm 19.0 17.8 14.1 73 2.8 ENE 13 - 7 - 1025.2 1025.1 0.0
22/10:30pm 19.0 17.7 13.8 72 3.0 E 13 - 7 - 1025.2 1025.1 0.0
22/10:00pm 19.0 16.9 13.6 71 3.1 E 17 - 9 - 1025.2 1025.1 0.0
22/09:30pm 19.1 16.9 13.3 69 3.3 ENE 17 - 9 - 1025.0 1024.9 0.0
22/09:00pm 19.2 16.4 13.2 68 3.4 ENE 20 - 11 - 1024.6 1024.5 0.0
22/08:30pm 19.2 16.1 13.4 69 3.3 E 22 - 12 - 1024.1 1024.0 0.0
22/08:00pm 19.3 15.8 13.3 68 3.4 E 24 - 13 - 1023.8 1023.7 0.0
22/07:30pm 19.3 16.0 12.8 66 3.7 ENE 22 - 12 - 1023.4 1023.3 0.0
22/07:00pm 19.5 15.3 12.5 64 3.9 E 26 - 14 - 1023.0 1022.9 0.0
22/06:30pm 20.0 15.8 12.5 62 4.2 ENE 26 - 14 - 1022.6 1022.5 0.0
22/06:00pm 20.1 16.9 11.8 59 4.6 ENE 20 - 11 - 1022.2 1022.1 0.0
22/05:30pm 20.7 16.7 11.9 57 4.9 ENE 24 - 13 - 1022.0 1021.9 0.0
22/05:00pm 20.9 16.9 11.8 56 5.1 ENE 24 - 13 - 1021.8 1021.7 0.0
22/04:30pm 21.1 17.1 11.7 55 5.2 ENE 24 - 13 - 1021.7 1021.6 0.0
22/04:00pm 21.6 16.7 12.7 57 5.0 ENE 30 - 16 - 1021.7 1021.6 0.0
22/03:30pm 21.3 16.7 12.2 56 5.1 E 28 - 15 - 1021.9 1021.8 0.0
22/03:00pm 22.5 19.3 11.9 51 6.0 ENE 20 - 11 - 1022.2 1022.1 0.0
22/02:30pm 22.2 17.5 11.9 52 5.8 ENE 28 - 15 - 1022.5 1022.4 0.0
22/02:00pm 22.2 18.6 10.4 47 6.4 ENE 20 - 11 - 1023.1 1023.0 0.0
22/01:30pm 23.1 18.5 11.2 47 6.6 ENE 26 - 14 - 1023.5 1023.4 0.0
22/01:00pm 22.8 18.7 11.5 49 6.3 ENE 24 - 13 - 1023.9 1023.8 0.0
22/12:30pm 23.0 19.3 11.4 48 6.5 E 22 - 12 - 1024.2 1024.1 0.0
22/12:00pm 23.4 19.3 10.1 43 7.3 E 22 - 12 - 1024.8 1024.7 0.0
22/11:30am 22.6 19.4 10.1 45 6.8 ENE 17 - 9 - 1025.0 1024.9 0.0
22/11:00am 22.5 18.6 9.6 44 6.9 E 20 - 11 - 1025.5 1025.4 0.0
22/10:30am 22.2 19.1 10.4 47 6.5 E 17 - 9 - 1025.9 1025.8 0.0
22/10:00am 20.7 19.9 9.6 49 5.9 SE 4 - 2 - 1026.0 1025.9 0.0
22/09:30am 19.6 18.0 10.3 55 5.0 W 9 - 5 - 1026.1 1026.0 0.0
22/09:00am 17.7 15.4 10.3 62 3.9 W 13 - 7 - 1026.3 1026.2 0.0
22/08:30am 16.3 13.9 10.2 67 3.2 W 13 - 7 - 1026.2 1026.1 0.0
22/08:00am 15.7 13.2 9.6 67 3.2 WNW 13 - 7 - 1026.2 1026.1 0.0
22/07:30am 14.9 11.8 10.3 74 2.4 WNW 17 - 9 - 1026.1 1026.0 0.0
22/07:00am 13.9 11.0 11.1 83 1.5 W 17 - 9 - 1025.7 1025.6 0.0
22/06:30am 13.2 12.2 10.4 83 1.5 WNW 6 - 3 - 1025.3 1025.2 0.0
22/06:00am 13.1 12.5 10.3 83 1.4 NW 4 - 2 - 1025.2 1025.1 0.0
22/05:30am 13.1 12.1 10.3 83 1.5 WNW 6 - 3 - 1025.1 1025.0 0.0
22/05:00am 13.3 11.7 10.3 82 1.5 WNW 9 - 5 - 1025.0 1024.9 0.0
22/04:30am 13.7 11.2 10.9 83 1.5 W 15 - 8 - 1025.0 1024.9 0.0
22/04:00am 13.8 12.4 10.8 82 1.6 WNW 9 - 5 - 1024.9 1024.8 0.0
22/03:30am 13.9 12.4 10.7 81 1.7 WNW 9 - 5 - 1025.1 1025.0 0.0
22/03:00am 14.2 12.4 11.0 81 1.7 WNW 11 - 6 - 1025.1 1025.0 0.0
22/02:30am 14.5 12.8 11.3 81 1.7 WNW 11 - 6 - 1025.3 1025.2 0.0
22/02:00am 14.7 13.4 11.1 79 1.9 WNW 9 - 5 - 1025.5 1025.4 0.0
22/01:30am 14.9 13.5 10.9 77 2.1 W 9 - 5 - 1025.9 1025.8 0.0
22/01:00am 15.4 14.5 11.2 76 2.2 WNW 7 - 4 - 1026.2 1026.1 0.0
22/12:30am 15.8 14.4 11.0 73 2.6 WNW 9 - 5 - 1026.5 1026.4 0.0
22/12:00am 16.4 16.4 11.3 72 2.7 NNW 2 - 1 - 1026.5 1026.4 0.0
 
Date/Time
EDT
Temp
°C
App
Temp
°C
Dew
Point
°C
Rel
Hum
%
Delta-T
°C
Wind Press
QNH
hPa
Press
MSL
hPa
Rain since
9am
mm
Dir  Spd
km/h
Gust
km/h
Spd
kts
Gust
kts
21/11:30pm 17.4 17.4 11.2 67 3.4 NNW 2 - 1 - 1026.5 1026.4 0.0
21/11:00pm 17.7 17.7 11.3 66 3.5 NNE 2 - 1 - 1026.6 1026.5 0.0
21/10:30pm 17.7 16.9 11.0 65 3.6 ENE 6 - 3 - 1026.6 1026.5 0.0
21/10:00pm 17.9 16.5 10.8 63 3.8 E 9 - 5 - 1026.7 1026.6 0.0
21/09:30pm 18.1 16.3 10.7 62 4.0 E 11 - 6 - 1026.7 1026.6 0.0
21/09:00pm 18.1 15.9 10.7 62 4.0 E 13 - 7 - 1026.5 1026.4 0.0
21/08:30pm 18.2 15.9 10.6 61 4.1 E 13 - 7 - 1026.2 1026.1 0.0
21/08:00pm 18.3 15.7 10.7 61 4.1 E 15 - 8 - 1026.0 1025.9 0.0
21/07:30pm 18.7 16.5 10.8 60 4.3 E 13 - 7 - 1025.7 1025.6 0.0
21/07:00pm 18.7 15.1 10.0 57 4.6 E 19 - 10 - 1025.4 1025.3 0.0
21/06:30pm 19.4 15.9 10.1 55 5.0 E 19 - 10 - 1025.0 1024.9 0.0
21/06:00pm 19.8 16.3 10.2 54 5.1 ENE 19 - 10 - 1024.7 1024.6 0.0
21/05:30pm 19.9 16.3 9.8 52 5.4 E 19 - 10 - 1024.7 1024.6 0.0
21/05:00pm 20.4 17.0 10.5 53 5.4 E 19 - 10 - 1024.5 1024.4 0.0
21/04:30pm 20.7 17.0 10.2 51 5.7 E 20 - 11 - 1024.5 1024.4 0.0
21/04:00pm 21.3 17.8 10.8 51 5.7 E 20 - 11 - 1024.5 1024.4 0.0
21/03:30pm 20.6 16.5 10.1 51 5.7 ENE 22 - 12 - 1024.7 1024.6 0.0
21/03:00pm 21.5 17.2 10.9 51 5.8 ENE 24 - 13 - 1024.9 1024.8 0.0
21/02:30pm 20.7 16.1 9.6 49 5.9 ENE 24 - 13 - 1025.2 1025.1 0.0
21/02:00pm 22.3 17.9 10.5 47 6.4 E 24 - 13 - 1025.5 1025.4 0.0
21/01:30pm 22.0 17.6 10.5 48 6.3 E 24 - 13 - 1025.7 1025.6 0.0

Other formats

Comma delimited format used in spreadsheet applications
http://www.bom.gov.au/fwo/IDN60801/IDN60801.94768.axf

JavaScript Object Notation format (JSON) in row-major order
http://www.bom.gov.au/fwo/IDN60801/IDN60801.94768.json

Data quality

Most of these data are generated automatically and are frequently updated. Quality checks on data are not normally performed. It is possible for incorrect values to appear. Refer to information at About Latest Weather Observations and please check the disclaimer before using these data.